Terminal Aerodrome Forecast
Issued by NWS

Home | Current Version | Previous Version | Text Only | Print | Product List | Glossary On
Versions: 1 2 3 4 5 6 7 8 9 10 11 12 13 14 15 16 17 18 19
309
FTUS42 KKEY 221121
TAFMTH
TAF
KMTH 221121Z 2212/2312 09012G19KT P6SM VCSH SCT020 BKN050
      TEMPO 2212/2215 BKN020
     FM221500 10012G20KT P6SM VCSH SCT020 SCT050
     FM222100 10011G19KT P6SM SCT025 SCT050=

USA.gov is the U.S. government's official web portal to all federal, state and local government web resources and services.